Time;durP1;ratioP1;P1;durP2;ratioP2;P2;SDS_P1;SDS_P2;PMS_P1;PMS_P2;Temp;Humidity;BMP_temperature;BMP_pressure;BME280_temperature;BME280_humidity;BME280_pressure;Samples;Min_cycle;Max_cycle;Signal;HPM_P1;HPM_P2
2022/06/15 00:00:28;;;;;;;13.25;2.97;;;;;;;12.66;77.15;100703.78;5102915;28;20028;-73
2022/06/15 00:02:53;;;;;;;9.10;4.30;;;;;;;12.82;77.16;100717.50;5084578;28;20024;-72
2022/06/15 00:05:19;;;;;;;9.82;3.20;;;;;;;12.83;77.60;100715.72;5102754;28;20095;-73
2022/06/15 00:07:44;;;;;;;11.32;3.30;;;;;;;12.82;77.66;100717.50;5102812;28;20028;-73
2022/06/15 00:10:09;;;;;;;8.85;3.47;;;;;;;12.79;77.62;100719.25;5103143;28;20052;-73
2022/06/15 00:12:35;;;;;;;16.05;2.97;;;;;;;12.80;77.59;100723.56;5102711;28;20088;-73
2022/06/15 00:15:01;;;;;;;13.40;3.53;;;;;;;12.78;77.86;100721.00;5103031;28;20080;-72
2022/06/15 00:17:26;;;;;;;12.15;3.38;;;;;;;12.75;78.11;100723.63;5102531;28;20037;-72
2022/06/15 00:19:51;;;;;;;13.20;3.28;;;;;;;12.70;78.10;100715.03;5103344;28;20026;-73
2022/06/15 00:22:17;;;;;;;12.45;3.47;;;;;;;12.72;78.08;100724.56;5106722;28;20395;-74
2022/06/15 00:24:42;;;;;;;10.50;3.20;;;;;;;12.69;78.45;100715.91;5106389;28;20054;-73
2022/06/15 00:27:07;;;;;;;7.90;3.38;;;;;;;12.68;78.44;100711.59;5106026;28;20110;-73
2022/06/15 00:29:37;;;;;;;8.68;3.25;;;;;;;12.67;78.35;100715.09;5106259;28;20027;-73
2022/06/15 00:32:02;;;;;;;16.10;3.85;;;;;;;12.61;78.96;100716.88;5106095;28;20043;-72
2022/06/15 00:34:28;;;;;;;10.73;4.43;;;;;;;12.60;78.90;100714.28;5106056;28;20016;-72
2022/06/15 00:36:53;;;;;;;11.13;3.30;;;;;;;12.61;78.85;100710.78;5106037;28;20024;-72
2022/06/15 00:39:18;;;;;;;9.50;4.00;;;;;;;12.60;78.90;100703.88;5106207;28;20027;-73
2022/06/15 00:41:44;;;;;;;10.77;4.07;;;;;;;12.63;78.80;100706.44;5106447;28;20028;-73
2022/06/15 00:44:21;;;;;;;14.60;4.55;;;;;;;12.60;79.54;100704.72;5105953;28;20069;-73
2022/06/15 00:46:49;;;;;;;17.00;4.10;;;;;;;12.61;79.57;100698.63;5105659;28;20081;-72
2022/06/15 00:49:24;;;;;;;14.98;3.95;;;;;;;12.60;79.63;100704.72;5106407;28;20475;-73
2022/06/15 00:51:53;;;;;;;13.40;4.35;;;;;;;12.63;79.62;100696.00;5105601;28;20024;-73
2022/06/15 00:54:21;;;;;;;16.15;3.65;;;;;;;12.63;79.88;100702.09;5105603;28;20028;-73
2022/06/15 00:56:47;;;;;;;13.63;3.60;;;;;;;12.64;79.87;100702.94;5105601;28;20020;-71
2022/06/15 00:59:14;;;;;;;18.65;4.03;;;;;;;12.66;79.85;100700.31;5106013;28;20039;-72
2022/06/15 01:01:40;;;;;;;18.75;4.05;;;;;;;12.70;79.96;100700.25;5105548;28;20035;-72
2022/06/15 01:04:06;;;;;;;12.55;3.55;;;;;;;12.72;79.76;100705.44;5087488;28;20073;-73
2022/06/15 01:06:56;;;;;;;19.30;4.13;;;;;;;12.77;79.96;100714.94;5105500;28;20083;-73
2022/06/15 01:09:26;;;;;;;11.50;3.40;;;;;;;12.85;79.77;100711.34;5105534;28;20038;-72
2022/06/15 01:12:17;;;;;;;16.00;4.72;;;;;;;12.91;79.47;100715.66;5105293;28;20099;-73
2022/06/15 01:14:45;;;;;;;13.13;3.75;;;;;;;12.98;79.29;100712.06;5105438;28;20028;-73
2022/06/15 01:17:44;;;;;;;11.98;4.05;;;;;;;13.03;79.40;100718.09;5105417;28;20028;-74
2022/06/15 01:20:32;;;;;;;19.35;4.78;;;;;;;13.08;79.15;100715.41;5105427;28;20031;-72
2022/06/15 01:23:15;;;;;;;12.48;4.32;;;;;;;13.10;79.12;100709.28;5105425;28;20076;-72
2022/06/15 01:25:52;;;;;;;13.27;4.13;;;;;;;13.14;78.96;100710.09;5104877;28;20031;-73
2022/06/15 01:29:16;;;;;;;16.58;4.03;;;;;;;13.18;78.70;100718.75;5105181;28;20057;-73
2022/06/15 01:32:01;;;;;;;16.25;4.43;;;;;;;13.22;78.45;100718.69;5016050;28;20030;-72
2022/06/15 01:34:39;;;;;;;12.80;3.80;;;;;;;13.24;78.55;100710.84;5022114;28;20022;-73
2022/06/15 01:37:18;;;;;;;13.52;4.85;;;;;;;13.23;78.45;100719.53;5022278;28;20038;-72
2022/06/15 01:40:06;;;;;;;10.88;3.67;;;;;;;13.25;78.36;100717.78;5022235;28;20117;-72
2022/06/15 01:42:40;;;;;;;19.65;4.28;;;;;;;13.26;78.52;100716.88;5022311;28;20088;-72
2022/06/15 01:45:10;;;;;;;21.90;4.30;;;;;;;13.26;78.72;100722.09;5021971;28;20105;-72
2022/06/15 01:47:39;;;;;;;14.48;5.00;;;;;;;13.28;78.49;100715.13;5021947;28;20045;-74
2022/06/15 01:50:17;;;;;;;13.75;4.68;;;;;;;13.31;78.41;100722.03;5022024;28;20410;-73
2022/06/15 01:53:03;;;;;;;11.43;4.18;;;;;;;13.38;78.44;100721.06;5021873;28;20053;-73
2022/06/15 01:55:31;;;;;;;15.45;3.88;;;;;;;13.46;78.04;100728.78;5021854;28;20058;-73
2022/06/15 01:58:02;;;;;;;16.48;4.78;;;;;;;13.39;77.64;100713.22;5021408;28;20580;-73
2022/06/15 02:00:27;;;;;;;17.30;4.75;;;;;;;13.50;77.77;100722.59;5021316;28;20042;-73
2022/06/15 02:03:08;;;;;;;15.02;4.25;;;;;;;13.49;77.64;100728.72;5020516;28;20026;-73
2022/06/15 02:06:26;;;;;;;14.35;4.90;;;;;;;13.48;77.69;100727.00;5059058;28;20032;-73
2022/06/15 02:09:04;;;;;;;16.38;4.65;;;;;;;13.46;77.82;100724.41;5021695;28;20041;-74
2022/06/15 02:11:39;;;;;;;15.65;3.88;;;;;;;13.48;77.46;100722.63;5021472;28;20042;-73
2022/06/15 02:14:38;;;;;;;12.70;3.65;;;;;;;13.50;77.37;100726.13;5021783;28;20034;-73
2022/06/15 02:17:08;;;;;;;15.77;5.07;;;;;;;13.52;77.22;100720.88;5021414;28;20060;-72
2022/06/15 02:19:47;;;;;;;15.32;4.43;;;;;;;13.51;77.23;100719.16;5021637;28;20025;-73
2022/06/15 02:22:19;;;;;;;14.77;3.67;;;;;;;13.51;76.93;100713.94;5021500;28;20022;-73
2022/06/15 02:24:47;;;;;;;13.00;4.30;;;;;;;13.44;77.08;100713.16;5021088;28;20079;-73
2022/06/15 02:27:14;;;;;;;14.10;4.63;;;;;;;13.44;76.76;100696.63;5021173;28;20026;-73
2022/06/15 02:29:44;;;;;;;16.05;4.35;;;;;;;13.50;76.91;100714.78;5021129;28;20038;-73
2022/06/15 02:32:11;;;;;;;16.90;4.63;;;;;;;13.51;76.59;100716.56;5020998;28;20092;-73
2022/06/15 02:34:37;;;;;;;15.60;3.90;;;;;;;13.51;76.52;100711.34;5021072;28;20076;-73
2022/06/15 02:37:04;;;;;;;13.55;3.88;;;;;;;13.52;76.57;100718.28;5020924;28;20026;-74
2022/06/15 02:39:30;;;;;;;16.45;3.38;;;;;;;13.58;75.94;100714.69;5020996;28;20067;-74
2022/06/15 02:42:20;;;;;;;19.10;4.25;;;;;;;13.59;75.89;100717.31;5021030;28;20080;-73
2022/06/15 02:44:48;;;;;;;14.20;4.20;;;;;;;13.65;75.58;100710.25;5062116;28;20036;-73
2022/06/15 02:47:14;;;;;;;15.70;3.80;;;;;;;13.65;75.51;100715.47;5083159;28;20518;-72
2022/06/15 02:49:39;;;;;;;14.70;3.80;;;;;;;13.66;75.64;100710.22;5083170;28;20095;-72
2022/06/15 02:52:05;;;;;;;10.13;3.35;;;;;;;13.67;75.41;100713.69;5082009;28;20044;-72
2022/06/15 02:54:44;;;;;;;20.77;4.70;;;;;;;13.67;75.48;100709.34;5083092;28;20030;-72
2022/06/15 02:57:11;;;;;;;11.18;3.55;;;;;;;13.72;75.41;100711.88;5088018;28;20088;-72
2022/06/15 02:59:36;;;;;;;19.60;4.60;;;;;;;13.69;75.18;100712.78;5103498;28;20107;-72
2022/06/15 03:02:02;;;;;;;15.02;3.25;;;;;;;13.68;75.14;100702.38;5103193;28;20525;-72
2022/06/15 03:04:28;;;;;;;14.77;3.78;;;;;;;13.65;74.99;100707.63;5103478;28;20043;-72
2022/06/15 03:06:53;;;;;;;15.73;4.85;;;;;;;13.63;75.08;100708.53;5103179;28;20023;-73
2022/06/15 03:09:19;;;;;;;11.40;3.22;;;;;;;13.63;74.96;100705.91;5103542;28;20087;-73
2022/06/15 03:11:45;;;;;;;9.38;3.33;;;;;;;13.70;74.99;100713.66;5085440;28;20024;-71
2022/06/15 03:14:13;;;;;;;13.20;3.28;;;;;;;13.72;75.01;100717.94;5103689;28;20031;-72
2022/06/15 03:16:43;;;;;;;16.67;3.58;;;;;;;13.73;74.82;100709.25;5103192;28;20111;-71
2022/06/15 03:19:09;;;;;;;11.63;2.85;;;;;;;13.83;74.68;100709.09;5103503;28;20101;-72
2022/06/15 03:21:34;;;;;;;8.23;2.40;;;;;;;13.92;74.46;100713.28;5103186;28;20020;-71
2022/06/15 03:23:59;;;;;;;11.15;2.90;;;;;;;13.95;74.46;100715.81;5103254;28;20024;-71
2022/06/15 03:26:25;;;;;;;12.98;2.80;;;;;;;14.02;74.38;100722.69;5102890;28;20024;-73
2022/06/15 03:28:50;;;;;;;8.52;2.67;;;;;;;14.10;74.19;100719.94;5102025;28;20039;-72
2022/06/15 03:31:15;;;;;;;11.38;3.03;;;;;;;14.18;73.82;100723.25;5102439;28;20024;-71
2022/06/15 03:33:41;;;;;;;12.88;3.42;;;;;;;14.17;73.62;100718.06;5103332;28;20089;-73
2022/06/15 03:36:07;;;;;;;15.13;3.50;;;;;;;14.16;73.57;100732.88;5103005;28;20068;-72
2022/06/15 03:38:32;;;;;;;13.15;2.78;;;;;;;14.21;73.76;100724.94;5103021;28;20103;-72
2022/06/15 03:40:58;;;;;;;14.05;3.00;;;;;;;14.20;73.29;100724.06;5103097;28;20249;-72
2022/06/15 03:43:23;;;;;;;13.18;2.90;;;;;;;14.17;73.39;100728.50;5102938;28;20020;-72
2022/06/15 03:45:49;;;;;;;13.73;3.20;;;;;;;14.17;73.37;100721.53;5103036;28;20161;-72
2022/06/15 03:48:15;;;;;;;11.20;3.15;;;;;;;14.12;73.47;100713.78;5102904;28;20028;-72
2022/06/15 03:50:40;;;;;;;15.95;3.28;;;;;;;14.16;73.63;100727.66;5103371;28;20020;-73
2022/06/15 03:53:06;;;;;;;14.70;2.78;;;;;;;14.15;73.30;100723.31;5103117;28;20030;-72
2022/06/15 03:55:33;;;;;;;9.88;3.65;;;;;;;14.18;73.51;100725.00;5104296;28;20468;-73
2022/06/15 03:57:59;;;;;;;16.65;3.83;;;;;;;14.19;73.40;100727.59;5106563;28;20087;-73
2022/06/15 04:00:28;;;;;;;12.27;2.45;;;;;;;14.17;73.42;100718.06;5106985;28;20035;-73
2022/06/15 04:02:54;;;;;;;12.52;3.40;;;;;;;14.27;73.34;100719.59;5106625;28;20080;-74
2022/06/15 04:05:22;;;;;;;12.18;3.08;;;;;;;14.27;73.38;100714.38;5106717;28;20039;-73
2022/06/15 04:10:49;;;;;;;9.57;2.35;;;;;;;14.43;73.01;100727.13;5023997;28;20029;-72
2022/06/15 04:13:15;;;;;;;13.13;2.70;;;;;;;14.48;72.61;100727.91;5023946;28;20048;-73
2022/06/15 04:15:42;;;;;;;18.50;3.55;;;;;;;14.49;72.78;100724.41;5024055;28;20461;-73
2022/06/15 04:18:07;;;;;;;14.60;2.92;;;;;;;14.46;72.66;100725.34;5006976;28;20101;-73
2022/06/15 04:20:32;;;;;;;10.50;2.88;;;;;;;14.44;72.34;100721.88;5023880;28;20036;-74
2022/06/15 04:23:03;;;;;;;12.95;2.88;;;;;;;14.46;72.45;100725.34;5024037;28;20034;-73
2022/06/15 04:25:30;;;;;;;11.18;2.67;;;;;;;14.46;72.22;100725.34;5023761;28;20037;-73
2022/06/15 04:27:57;;;;;;;14.00;3.03;;;;;;;14.49;72.26;100727.00;5023680;28;20096;-73
2022/06/15 04:30:23;;;;;;;8.95;3.00;;;;;;;14.54;72.00;100726.91;5023847;28;20073;-73
2022/06/15 04:32:49;;;;;;;14.40;3.15;;;;;;;14.56;71.82;100730.38;5023370;28;20038;-73
2022/06/15 04:35:15;;;;;;;10.07;2.65;;;;;;;14.53;71.95;100736.53;5023613;28;20114;-73
2022/06/15 04:37:41;;;;;;;15.57;2.92;;;;;;;14.51;71.97;100738.31;5023641;28;20033;-73
2022/06/15 04:40:07;;;;;;;10.68;2.90;;;;;;;14.54;72.08;100735.63;5023267;28;20040;-69
2022/06/15 04:42:33;;;;;;;15.75;2.97;;;;;;;14.51;71.92;100733.09;5023361;28;20034;-72
2022/06/15 04:44:58;;;;;;;11.30;3.50;;;;;;;14.51;71.77;100730.47;5070635;28;20044;-73
2022/06/15 04:47:23;;;;;;;9.10;2.38;;;;;;;14.59;71.65;100735.53;5105669;28;20062;-66
2022/06/15 04:49:49;;;;;;;10.63;2.90;;;;;;;14.61;71.73;100750.31;5106084;28;20028;-70
2022/06/15 04:52:14;;;;;;;13.80;3.17;;;;;;;14.54;71.56;100729.53;5105753;28;20125;-70
2022/06/15 04:54:39;;;;;;;8.88;2.45;;;;;;;14.58;71.64;100739.94;5105700;28;20016;-69
2022/06/15 04:57:05;;;;;;;10.18;2.97;;;;;;;14.62;71.56;100735.47;5105530;28;20113;-68
2022/06/15 04:59:30;;;;;;;10.50;3.22;;;;;;;14.74;71.51;100740.44;5106057;28;20028;-70
2022/06/15 05:01:56;;;;;;;13.45;2.90;;;;;;;14.86;71.15;100738.50;5105685;28;20480;-69
2022/06/15 05:04:21;;;;;;;13.80;3.05;;;;;;;14.91;70.61;100730.56;5105594;28;20027;-70
2022/06/15 05:06:47;;;;;;;14.40;3.08;;;;;;;14.95;70.90;100746.16;5104810;28;20016;-70
2022/06/15 05:09:14;;;;;;;11.73;2.67;;;;;;;14.94;70.56;100730.50;5105894;28;20048;-70
2022/06/15 05:11:39;;;;;;;18.15;2.97;;;;;;;14.96;70.31;100741.78;5105875;28;20028;-70
2022/06/15 05:14:05;;;;;;;6.45;2.33;;;;;;;14.99;70.11;100754.81;5105575;28;20197;-69
2022/06/15 05:16:31;;;;;;;9.95;2.20;;;;;;;15.05;70.22;100753.81;5105469;28;20089;-69
2022/06/15 05:18:56;;;;;;;11.48;2.90;;;;;;;15.06;70.27;100738.09;5105392;28;20460;-69
2022/06/15 05:21:22;;;;;;;10.32;2.40;;;;;;;15.26;70.04;100755.09;5105372;28;20468;-69
2022/06/15 05:23:48;;;;;;;9.48;2.03;;;;;;;15.29;69.48;100747.16;5105105;28;20464;-70
2022/06/15 05:26:14;;;;;;;15.68;2.33;;;;;;;15.45;69.44;100752.03;5105312;28;20062;-69
2022/06/15 05:28:45;;;;;;;11.98;2.20;;;;;;;15.60;69.12;100761.31;5105524;28;20024;-69
2022/06/15 05:31:16;;;;;;;14.80;2.72;;;;;;;15.65;68.55;100753.34;5105163;28;20028;-69
2022/06/15 05:33:42;;;;;;;10.20;2.67;;;;;;;15.62;67.75;100754.28;5105359;28;20027;-69
2022/06/15 05:36:12;;;;;;;10.30;2.40;;;;;;;15.53;68.35;100747.50;5105211;28;20261;-69
2022/06/15 05:38:37;;;;;;;7.43;2.40;;;;;;;15.55;68.11;100747.47;5105330;28;20020;-69
2022/06/15 05:41:03;;;;;;;9.88;2.92;;;;;;;15.58;67.96;100750.88;5105113;28;20024;-69
2022/06/15 05:43:29;;;;;;;10.02;2.90;;;;;;;15.53;67.47;100752.72;5105121;28;20491;-70
2022/06/15 05:45:55;;;;;;;7.15;2.15;;;;;;;15.77;68.08;100753.03;5086688;28;20050;-70
2022/06/15 05:48:20;;;;;;;10.00;2.72;;;;;;;16.00;66.69;100763.84;5104816;28;20023;-70
2022/06/15 05:50:45;;;;;;;12.88;2.80;;;;;;;16.01;65.87;100761.19;5104911;28;20068;-69
2022/06/15 05:53:11;;;;;;;10.52;2.60;;;;;;;16.02;66.31;100756.84;5086625;28;20024;-69
2022/06/15 05:55:36;;;;;;;6.90;2.38;;;;;;;16.23;66.26;100760.63;5104702;28;20399;-69
2022/06/15 05:58:03;;;;;;;9.57;2.78;;;;;;;16.57;66.07;100764.97;5104416;28;20063;-69
2022/06/15 06:00:29;;;;;;;9.70;2.40;;;;;;;16.87;65.30;100750.19;5086453;28;20052;-69
2022/06/15 06:02:54;;;;;;;5.95;1.80;;;;;;;17.06;63.90;100751.31;5104405;28;20024;-69
2022/06/15 06:05:20;;;;;;;8.00;2.47;;;;;;;17.17;63.18;100764.16;5104686;28;20027;-70
2022/06/15 06:07:45;;;;;;;8.55;1.85;;;;;;;17.16;62.63;100758.94;5104961;28;20177;-69
2022/06/15 06:10:10;;;;;;;6.25;2.00;;;;;;;17.36;62.90;100760.09;5104694;28;20048;-69
2022/06/15 06:12:36;;;;;;;11.07;2.38;;;;;;;17.44;62.26;100758.09;5104595;28;20035;-69
2022/06/15 06:15:02;;;;;;;7.35;2.13;;;;;;;17.53;62.26;100760.44;5104672;28;20028;-69
2022/06/15 06:17:28;;;;;;;7.68;2.10;;;;;;;17.77;60.24;100757.91;5104241;28;20032;-70
2022/06/15 06:19:53;;;;;;;9.25;2.60;;;;;;;17.81;60.16;100761.31;5104537;28;20103;-69
2022/06/15 06:22:19;;;;;;;8.45;2.30;;;;;;;18.00;59.73;100758.94;5104469;28;20024;-69
2022/06/15 06:24:44;;;;;;;8.00;2.22;;;;;;;18.40;59.95;100766.34;5104181;28;20024;-69
2022/06/15 06:27:14;;;;;;;7.55;2.08;;;;;;;18.64;58.67;100764.59;5104336;28;20036;-70
2022/06/15 06:29:40;;;;;;;4.78;2.00;;;;;;;19.06;58.37;100757.78;5104273;28;20415;-70
2022/06/15 06:32:07;;;;;;;9.68;2.20;;;;;;;19.62;55.84;100756.53;5103870;28;20026;-69
2022/06/15 06:34:32;;;;;;;9.70;2.42;;;;;;;19.98;55.72;100760.34;5085805;28;20027;-69
2022/06/15 06:36:59;;;;;;;10.48;1.90;;;;;;;20.26;54.42;100757.41;5104401;28;20246;-69
2022/06/15 06:39:28;;;;;;;10.32;2.35;;;;;;;20.48;52.89;100756.44;5104183;28;20081;-69
2022/06/15 06:41:55;;;;;;;7.68;2.00;;;;;;;20.84;52.89;100761.91;5104070;28;20091;-69
2022/06/15 06:44:21;;;;;;;7.95;1.80;;;;;;;21.01;51.41;100751.44;5103983;28;20472;-69
2022/06/15 06:46:49;;;;;;;7.45;2.13;;;;;;;21.23;51.41;100747.78;5103636;28;20466;-69
2022/06/15 06:49:16;;;;;;;6.18;1.80;;;;;;;21.23;50.66;100758.34;5104059;28;20027;-69
2022/06/15 06:51:42;;;;;;;7.82;2.20;;;;;;;21.38;49.88;100763.81;5085762;28;20399;-69
2022/06/15 06:54:09;;;;;;;6.57;2.05;;;;;;;21.57;49.96;100750.56;5103735;28;20024;-69
2022/06/15 06:56:35;;;;;;;6.40;2.30;;;;;;;21.92;48.05;100761.19;5103860;28;20016;-69
2022/06/15 06:59:06;;;;;;;8.40;1.90;;;;;;;21.81;47.26;100770.56;5103743;28;20101;-69
2022/06/15 07:01:32;;;;;;;6.43;2.33;;;;;;;21.38;47.28;100772.59;5103540;28;20028;-69
2022/06/15 07:03:57;;;;;;;5.82;2.10;;;;;;;21.18;49.16;100770.91;5103986;28;20063;-69
2022/06/15 07:06:22;;;;;;;5.47;1.70;;;;;;;21.47;48.36;100766.00;5103668;28;20016;-69
2022/06/15 07:08:50;;;;;;;7.35;1.95;;;;;;;21.68;47.86;100771.16;5103709;28;20028;-69
2022/06/15 07:11:16;;;;;;;9.38;2.30;;;;;;;21.30;47.24;100774.75;5103732;28;20024;-69
2022/06/15 07:13:43;;;;;;;6.07;1.63;;;;;;;21.07;48.75;100773.19;5103629;28;20093;-69
2022/06/15 07:16:10;;;;;;;5.82;1.70;;;;;;;21.73;48.53;100766.50;5103648;28;20518;-69
2022/06/15 07:18:35;;;;;;;5.00;1.80;;;;;;;22.16;46.43;100774.06;5103376;28;20020;-69
2022/06/15 07:21:06;;;;;;;11.70;2.13;;;;;;;21.83;46.41;100766.94;5103607;28;20020;-69
2022/06/15 07:23:32;;;;;;;7.45;2.47;;;;;;;21.27;46.82;100770.47;5103483;28;20024;-69
2022/06/15 07:26:02;;;;;;;6.70;2.05;;;;;;;20.93;48.13;100778.19;5103337;28;20060;-69
2022/06/15 07:28:28;;;;;;;6.47;2.20;;;;;;;21.32;48.17;100767.63;5102833;28;20036;-69
2022/06/15 07:30:53;;;;;;;7.57;1.90;;;;;;;21.76;46.23;100778.69;5105071;28;20027;-69
2022/06/15 07:33:19;;;;;;;6.65;1.83;;;;;;;21.61;46.42;100769.75;5107588;28;20043;-69
2022/06/15 07:35:44;;;;;;;7.32;2.20;;;;;;;21.57;46.88;100771.69;5107718;28;20028;-69
2022/06/15 07:38:10;;;;;;;5.13;2.50;;;;;;;21.91;46.68;100775.34;5107728;28;20024;-69
2022/06/15 07:40:35;;;;;;;7.25;1.60;;;;;;;22.60;45.75;100784.22;5107558;28;20032;-70
2022/06/15 07:43:00;;;;;;;6.95;2.15;;;;;;;23.25;45.00;100777.19;5089237;28;20043;-69
2022/06/15 07:45:26;;;;;;;8.02;2.25;;;;;;;23.31;43.53;100779.47;5089141;28;20024;-69
2022/06/15 07:50:39;;;;;;;6.45;2.17;;;;;;;22.09;44.74;100792.97;5107712;28;20055;-69
2022/06/15 07:53:07;;;;;;;7.63;2.25;;;;;;;22.29;45.27;100792.81;5107560;28;20024;-69
2022/06/15 07:55:35;;;;;;;7.43;2.25;;;;;;;22.60;44.32;100797.44;5107214;28;20017;-69
2022/06/15 07:58:02;;;;;;;5.78;1.98;;;;;;;22.54;44.22;100796.81;5107229;28;20043;-69
2022/06/15 08:00:28;;;;;;;9.95;2.00;;;;;;;22.23;44.14;100811.63;5107271;28;20020;-69
2022/06/15 08:02:54;;;;;;;4.35;1.73;;;;;;;22.25;44.34;100800.97;5106929;28;20024;-69
2022/06/15 08:05:20;;;;;;;5.88;2.10;;;;;;;22.58;43.62;100804.56;5107110;28;20082;-68
2022/06/15 08:07:47;;;;;;;5.43;2.10;;;;;;;23.31;43.37;100802.47;5107255;28;20173;-69
2022/06/15 08:10:16;;;;;;;10.68;2.85;;;;;;;24.21;41.58;100799.16;5106961;28;20022;-68
2022/06/15 08:12:41;;;;;;;7.28;1.90;;;;;;;24.80;40.44;100792.06;5107165;28;20123;-68
2022/06/15 08:15:09;;;;;;;7.78;1.70;;;;;;;25.23;39.60;100815.94;5106831;28;20031;-68
2022/06/15 08:17:45;;;;;;;6.72;1.95;;;;;;;25.67;38.88;100805.16;5106702;28;20028;-68
2022/06/15 08:20:14;;;;;;;3.92;1.73;;;;;;;26.00;37.44;100803.00;5106888;28;20024;-67
2022/06/15 08:22:43;;;;;;;6.82;1.85;;;;;;;26.12;37.05;100803.97;5106553;28;20020;-69
2022/06/15 08:25:12;;;;;;;10.85;2.80;;;;;;;25.93;37.22;100809.69;5106649;28;20020;-68
2022/06/15 08:27:37;;;;;;;7.00;2.35;;;;;;;25.74;37.44;100809.13;5106571;28;20102;-69
2022/06/15 08:30:10;;;;;;;4.57;2.38;;;;;;;25.63;37.56;100806.34;5106469;28;20468;-68
2022/06/15 08:32:36;;;;;;;3.60;1.88;;;;;;;25.93;37.15;100813.22;5106400;28;20058;-67
2022/06/15 08:35:03;;;;;;;6.55;2.20;;;;;;;26.08;36.37;100811.34;5106395;28;20039;-69
2022/06/15 08:37:29;;;;;;;6.10;1.88;;;;;;;25.56;37.00;100816.47;5106410;28;20114;-68
2022/06/15 08:39:54;;;;;;;9.65;2.47;;;;;;;25.24;38.42;100807.00;5106408;28;20024;-69
2022/06/15 08:42:43;;;;;;;5.78;2.50;;;;;;;25.71;37.86;100814.66;5104883;28;20024;-68
2022/06/15 08:45:20;;;;;;;8.60;2.30;;;;;;;26.17;37.02;100807.19;5064125;28;20035;-69
2022/06/15 08:48:04;;;;;;;7.55;2.25;;;;;;;25.80;36.52;100817.66;5087594;28;20028;-68
2022/06/15 08:50:41;;;;;;;6.20;1.83;;;;;;;25.57;37.08;100817.34;5106195;28;20019;-68
2022/06/15 08:53:41;;;;;;;7.63;1.98;;;;;;;25.65;37.21;100817.72;5106216;28;20024;-69
2022/06/15 08:56:14;;;;;;;7.60;2.22;;;;;;;25.79;36.10;100813.28;5106040;28;20048;-68
2022/06/15 08:58:46;;;;;;;6.47;1.98;;;;;;;25.71;36.65;100814.66;5105760;28;20119;-69
2022/06/15 09:01:18;;;;;;;7.50;2.60;;;;;;;25.73;36.39;100809.22;5106125;28;20067;-69
2022/06/15 09:03:53;;;;;;;6.15;2.22;;;;;;;25.38;36.26;100818.56;5105777;28;20028;-69
2022/06/15 09:06:29;;;;;;;7.38;2.50;;;;;;;24.93;37.11;100818.72;5105853;28;20045;-69
2022/06/15 09:09:10;;;;;;;9.30;2.03;;;;;;;24.53;37.70;100822.03;5105975;28;20035;-70
2022/06/15 09:12:49;;;;;;;4.03;1.90;;;;;;;24.14;37.89;100814.53;5105844;28;20023;-69
2022/06/15 09:14:53;;;;;;;5.32;1.80;;;;;;;23.82;39.32;100815.50;5105509;28;20032;-68
2022/06/15 09:17:22;;;;;;;7.72;1.92;;;;;;;24.20;39.47;100808.91;5105465;28;20016;-69
2022/06/15 09:20:01;;;;;;;8.15;2.50;;;;;;;24.67;38.76;100808.75;5105606;28;20020;-69
2022/06/15 09:22:38;;;;;;;6.68;2.17;;;;;;;25.13;37.50;100818.31;5087555;28;20435;-69
2022/06/15 09:25:17;;;;;;;4.70;1.77;;;;;;;24.86;37.19;100815.56;5105728;28;20418;-68
2022/06/15 09:27:56;;;;;;;10.48;2.47;;;;;;;25.06;37.91;100809.06;5105773;28;20020;-69
2022/06/15 09:30:27;;;;;;;7.20;1.95;;;;;;;25.62;36.79;100807.28;5105779;28;20083;-69
2022/06/15 09:33:09;;;;;;;6.18;2.00;;;;;;;25.90;36.33;100813.41;5105289;28;20557;-69
2022/06/15 09:35:42;;;;;;;9.25;2.35;;;;;;;25.79;36.43;100813.28;5105311;28;20035;-70
2022/06/15 09:38:12;;;;;;;6.28;1.95;;;;;;;25.80;35.96;100812.34;5105318;28;20020;-69
2022/06/15 09:40:52;;;;;;;12.15;2.60;;;;;;;25.99;36.08;100807.47;5105380;28;20028;-69
2022/06/15 09:43:38;;;;;;;7.03;2.40;;;;;;;26.26;35.27;100818.16;5105499;28;20035;-69
2022/06/15 09:46:15;;;;;;;4.45;2.15;;;;;;;26.38;34.34;100812.00;5105105;28;20464;-69
2022/06/15 09:48:43;;;;;;;6.00;2.17;;;;;;;26.31;34.94;100818.69;5104891;28;20032;-69
2022/06/15 09:51:24;;;;;;;7.57;2.10;;;;;;;26.28;35.13;100814.41;5105020;28;20035;-69
2022/06/15 09:54:03;;;;;;;6.50;2.37;;;;;;;26.19;35.57;100820.38;5104689;28;20027;-69
2022/06/15 09:56:28;;;;;;;4.88;1.90;;;;;;;26.30;35.76;100808.97;5105079;28;20051;-69
2022/06/15 09:58:58;;;;;;;6.80;2.38;;;;;;;25.84;35.62;100824.47;5104783;28;20043;-69
2022/06/15 10:01:26;;;;;;;6.00;2.50;;;;;;;25.29;36.79;100827.13;5104896;28;20392;-68
2022/06/15 10:03:54;;;;;;;9.20;2.25;;;;;;;24.84;37.68;100820.13;5104724;28;20020;-69
2022/06/15 10:06:30;;;;;;;6.80;2.00;;;;;;;24.19;38.09;100822.25;5104674;28;20411;-69
2022/06/15 10:08:58;;;;;;;8.52;2.40;;;;;;;23.72;39.23;100823.13;5104659;28;20044;-69
2022/06/15 10:11:35;;;;;;;5.30;2.13;;;;;;;23.55;40.21;100818.78;5104739;28;20375;-69
2022/06/15 10:14:22;;;;;;;8.27;2.35;;;;;;;24.26;39.66;100813.88;5104636;28;20024;-69
2022/06/15 10:16:53;;;;;;;5.07;2.10;;;;;;;24.28;39.60;100818.22;5104144;28;20050;-69
2022/06/15 10:19:19;;;;;;;6.57;2.10;;;;;;;24.61;39.50;100823.28;5104542;28;20012;-69
2022/06/15 10:21:55;;;;;;;12.15;2.90;;;;;;;24.26;39.27;100823.59;5104376;28;20089;-69
2022/06/15 10:24:29;;;;;;;10.80;3.28;;;;;;;23.95;40.24;100815.63;5104394;28;20027;-68
2022/06/15 10:27:16;;;;;;;6.97;2.30;;;;;;;23.70;40.51;100824.16;5104328;28;20045;-69
2022/06/15 10:29:42;;;;;;;7.00;2.53;;;;;;;23.62;41.35;100825.47;5104549;28;20047;-69
2022/06/15 10:32:08;;;;;;;8.45;2.65;;;;;;;23.87;40.30;100825.84;5103455;28;20083;-69
2022/06/15 10:34:55;;;;;;;8.07;2.63;;;;;;;23.74;40.11;100829.19;5103282;28;20032;-69
2022/06/15 10:37:22;;;;;;;8.45;2.40;;;;;;;23.49;41.03;100835.03;5103681;28;20484;-69
2022/06/15 10:39:51;;;;;;;6.97;2.35;;;;;;;23.73;41.33;100831.94;5104125;28;20609;-70
2022/06/15 10:42:29;;;;;;;7.82;2.50;;;;;;;24.13;40.68;100828.75;5104323;28;20231;-69
2022/06/15 10:44:59;;;;;;;8.25;2.95;;;;;;;23.83;40.76;100840.22;5103951;28;20496;-69
2022/06/15 10:47:34;;;;;;;6.50;2.10;;;;;;;23.26;41.20;100840.66;5103733;28;20046;-69
2022/06/15 10:50:06;;;;;;;9.48;2.40;;;;;;;22.83;42.02;100835.91;5103915;28;20039;-69
2022/06/15 10:53:00;;;;;;;7.82;2.72;;;;;;;22.35;42.76;100838.41;5104032;28;20020;-69
2022/06/15 11:04:09;;;;;;;8.50;2.55;;;;;;;22.11;44.52;100838.72;5103662;28;20093;-70
2022/06/15 11:06:44;;;;;;;9.40;2.88;;;;;;;21.78;44.75;100837.66;5103214;28;20048;-69
2022/06/15 11:09:22;;;;;;;8.23;3.05;;;;;;;21.23;45.07;100837.53;5085748;28;20391;-69
2022/06/15 11:11:48;;;;;;;10.38;3.65;;;;;;;20.84;46.22;100835.78;5103676;28;20024;-69
2022/06/15 11:14:22;;;;;;;11.73;3.88;;;;;;;20.51;46.79;100845.97;5103585;28;20107;-69
2022/06/15 11:19:50;;;;;;;8.45;2.60;;;;;;;20.01;48.81;100842.75;5103855;28;20154;-70
2022/06/15 11:22:17;;;;;;;10.23;2.75;;;;;;;19.77;48.92;100840.19;5103817;28;20020;-70
2022/06/15 11:24:50;;;;;;;7.97;2.58;;;;;;;19.57;49.82;100841.84;5103309;28;20111;-69
2022/06/15 11:27:41;;;;;;;9.45;3.08;;;;;;;19.42;50.19;100835.41;5103315;28;20084;-69
2022/06/15 11:30:27;;;;;;;6.80;2.25;;;;;;;19.22;50.46;100849.31;5102794;28;20016;-69
2022/06/15 11:33:01;;;;;;;11.20;2.95;;;;;;;19.13;50.85;100847.03;5103008;28;20035;-69
2022/06/15 11:35:45;;;;;;;10.60;3.63;;;;;;;18.98;50.87;100843.19;5103387;28;20027;-69
2022/06/15 11:38:25;;;;;;;8.00;3.05;;;;;;;18.71;51.06;100846.75;5103466;28;20024;-69
2022/06/15 11:40:55;;;;;;;9.50;2.83;;;;;;;18.57;52.10;100834.09;5103333;28;20074;-69
2022/06/15 11:43:27;;;;;;;10.73;2.72;;;;;;;18.50;52.53;100840.50;5103098;28;20016;-69
2022/06/15 11:46:08;;;;;;;7.10;2.47;;;;;;;18.45;52.58;100825.72;5103336;28;20344;-69
2022/06/15 11:48:39;;;;;;;5.25;2.50;;;;;;;18.46;52.14;100831.84;5103160;28;20058;-69
2022/06/15 11:51:17;;;;;;;12.80;2.92;;;;;;;18.36;51.84;100828.69;5103379;28;20043;-69
2022/06/15 11:54:33;;;;;;;9.30;2.50;;;;;;;18.31;51.60;100823.59;5103363;28;20042;-69